createdAt,value
2018-09-25T00:00:00.664Z,10.50
2018-09-25T00:02:35.857Z,10.50
2018-09-25T00:05:11.245Z,10.47
2018-09-25T00:07:45.644Z,10.46
2018-09-25T00:10:20.279Z,10.46
2018-09-25T00:12:54.855Z,10.45
2018-09-25T00:15:30.665Z,10.43
2018-09-25T00:18:06.218Z,10.42
2018-09-25T00:20:40.678Z,10.38
2018-09-25T00:23:15.155Z,10.34
2018-09-25T00:25:49.765Z,10.34
2018-09-25T00:28:25.238Z,10.33
2018-09-25T00:30:59.885Z,10.33
2018-09-25T00:33:34.404Z,10.28
2018-09-25T00:36:09.622Z,10.26
2018-09-25T00:38:44.844Z,10.25
2018-09-25T00:41:19.474Z,10.24
2018-09-25T00:43:55.100Z,10.21
2018-09-25T00:46:29.720Z,10.23
2018-09-25T00:49:04.886Z,10.18
2018-09-25T00:51:40.547Z,10.14
2018-09-25T00:54:14.993Z,10.11
2018-09-25T00:56:50.148Z,10.11
2018-09-25T00:59:24.714Z,10.09
2018-09-25T01:01:59.278Z,10.08
2018-09-25T01:04:33.924Z,10.09
2018-09-25T01:07:08.592Z,10.06
2018-09-25T01:09:43.234Z,10.00
2018-09-25T01:12:17.981Z,9.99
2018-09-25T01:14:52.724Z,10.00
2018-09-25T01:17:27.301Z,9.97
2018-09-25T01:20:01.877Z,9.94
2018-09-25T01:22:36.251Z,9.90
2018-09-25T01:25:11.815Z,9.87
2018-09-25T01:27:46.323Z,9.87
2018-09-25T01:30:20.867Z,9.88
2018-09-25T01:32:55.284Z,9.89
2018-09-25T01:35:29.739Z,9.89
2018-09-25T01:38:04.269Z,9.89
2018-09-25T01:40:38.732Z,9.86
2018-09-25T01:43:13.402Z,9.82
2018-09-25T01:45:47.931Z,9.83
2018-09-25T01:48:22.553Z,9.82
2018-09-25T01:50:57.110Z,9.86
2018-09-25T01:53:31.918Z,9.82
2018-09-25T01:56:07.427Z,9.76
2018-09-25T01:58:42.016Z,9.73
2018-09-25T02:01:17.537Z,9.70
2018-09-25T02:03:52.048Z,9.69
2018-09-25T02:06:26.607Z,9.71
2018-09-25T02:09:02.264Z,9.71
2018-09-25T02:11:36.887Z,9.69
2018-09-25T02:14:11.368Z,9.68
2018-09-25T02:16:45.946Z,9.67
2018-09-25T02:19:20.569Z,9.64
2018-09-25T02:21:55.125Z,9.63
2018-09-25T02:24:31.117Z,9.62
2018-09-25T02:27:05.693Z,9.64
2018-09-25T02:29:41.293Z,9.67
2018-09-25T02:32:15.800Z,9.69
2018-09-25T02:34:50.495Z,9.69
2018-09-25T02:37:25.077Z,9.70
2018-09-25T02:39:59.571Z,9.75
2018-09-25T02:42:34.070Z,9.74
2018-09-25T02:45:08.795Z,9.72
2018-09-25T02:47:43.851Z,9.73
2018-09-25T02:50:19.508Z,9.76
2018-09-25T02:52:53.938Z,9.75
2018-09-25T02:55:28.866Z,9.74
2018-09-25T02:58:03.500Z,9.73
2018-09-25T03:00:38.159Z,9.71
2018-09-25T03:03:12.662Z,9.68
2018-09-25T03:05:47.208Z,9.66
2018-09-25T03:08:21.668Z,9.64
2018-09-25T03:10:56.299Z,9.61
2018-09-25T03:13:32.090Z,9.56
2018-09-25T03:16:06.765Z,9.54
2018-09-25T03:18:41.320Z,9.52
2018-09-25T03:21:16.420Z,9.50
2018-09-25T03:23:52.000Z,9.48
2018-09-25T03:26:26.570Z,9.46
2018-09-25T03:29:01.043Z,9.42
2018-09-25T03:31:35.438Z,9.40
2018-09-25T03:34:10.639Z,9.41
2018-09-25T03:36:45.020Z,9.43
2018-09-25T03:39:19.493Z,9.46
2018-09-25T03:41:54.200Z,9.45
2018-09-25T03:44:28.722Z,9.45
2018-09-25T03:47:03.425Z,9.47
2018-09-25T03:49:38.181Z,9.44
2018-09-25T03:52:12.724Z,9.47
2018-09-25T03:54:48.668Z,9.48
2018-09-25T03:57:24.473Z,9.44
2018-09-25T03:59:59.063Z,9.41
2018-09-25T04:02:33.666Z,9.39
2018-09-25T04:05:09.108Z,9.40
2018-09-25T04:07:43.625Z,9.43
2018-09-25T04:10:18.813Z,9.45
2018-09-25T04:12:53.356Z,9.47
2018-09-25T04:15:28.351Z,9.44
2018-09-25T04:18:02.882Z,9.43
2018-09-25T04:20:37.396Z,9.43
2018-09-25T04:23:12.026Z,9.42
2018-09-25T04:25:48.119Z,9.44
2018-09-25T04:28:23.094Z,9.42
2018-09-25T04:30:57.788Z,9.43
2018-09-25T04:33:32.459Z,9.42
2018-09-25T04:36:07.658Z,9.40
2018-09-25T04:38:42.748Z,9.42
2018-09-25T04:41:17.544Z,9.42
2018-09-25T04:43:53.391Z,9.41
2018-09-25T04:46:29.180Z,9.42
2018-09-25T04:49:04.209Z,9.43
2018-09-25T04:51:38.729Z,9.43
2018-09-25T04:54:13.238Z,9.44
2018-09-25T04:56:49.188Z,9.46
2018-09-25T04:59:23.897Z,9.48
2018-09-25T05:01:58.505Z,9.48
2018-09-25T05:04:32.988Z,9.48
2018-09-25T05:07:08.818Z,9.47
2018-09-25T05:09:44.381Z,9.52
2018-09-25T05:12:19.697Z,9.56
2018-09-25T05:14:56.473Z,9.57
2018-09-25T05:17:31.159Z,9.58
2018-09-25T05:20:05.792Z,9.58
2018-09-25T05:22:41.363Z,9.62
2018-09-25T05:25:16.243Z,9.62
2018-09-25T05:27:50.685Z,9.63
2018-09-25T05:30:25.212Z,9.65
2018-09-25T05:32:59.748Z,9.65
2018-09-25T05:35:34.354Z,9.66
2018-09-25T05:38:09.092Z,9.69
2018-09-25T05:40:44.562Z,9.71
2018-09-25T05:43:19.191Z,9.78
2018-09-25T05:45:53.715Z,9.79
2018-09-25T05:48:28.565Z,9.87
2018-09-25T05:51:03.107Z,9.92
2018-09-25T05:53:37.579Z,9.98
2018-09-25T05:56:12.188Z,10.05
2018-09-25T05:58:46.663Z,10.15
2018-09-25T06:01:22.507Z,10.23
2018-09-25T06:04:10.691Z,10.30
2018-09-25T06:07:22.125Z,10.35
2018-09-25T06:19:32.758Z,10.68
2018-09-25T06:22:12.161Z,10.71
2018-09-25T06:27:34.412Z,10.89
2018-09-25T06:30:09.414Z,11.01
2018-09-25T06:33:41.097Z,11.10
2018-09-25T06:36:30.716Z,11.16
2018-09-25T06:39:17.159Z,11.29
2018-09-25T06:42:03.353Z,11.38
2018-09-25T06:44:46.476Z,11.47
2018-09-25T06:50:54.731Z,11.62
2018-09-25T06:53:36.590Z,11.65
2018-09-25T06:56:21.999Z,11.71
2018-09-25T06:59:11.422Z,11.82
2018-09-25T07:04:43.861Z,11.90
2018-09-25T07:07:22.473Z,11.94
2018-09-25T07:09:59.777Z,12.04
2018-09-25T07:12:45.875Z,12.11
2018-09-25T07:18:34.058Z,12.25
2018-09-25T07:21:20.011Z,12.26
2018-09-25T07:23:59.044Z,12.34
2018-09-25T07:26:39.945Z,12.40
2018-09-25T07:32:19.595Z,12.46
2018-09-25T07:34:58.219Z,12.67
2018-09-25T07:37:34.868Z,12.88
2018-09-25T07:40:13.106Z,12.90
2018-09-25T07:46:36.390Z,13.01
2018-09-25T07:52:16.141Z,13.18
2018-09-25T07:54:53.015Z,13.21
2018-09-25T07:57:31.950Z,13.27
2018-09-25T08:01:12.521Z,13.37
2018-09-25T08:03:51.944Z,13.47
2018-09-25T08:06:29.371Z,13.56
2018-09-25T08:09:06.213Z,13.70
2018-09-25T08:11:42.687Z,13.80
2018-09-25T08:21:59.972Z,14.11
2018-09-25T08:24:39.525Z,14.23
2018-09-25T08:27:17.938Z,14.31
2018-09-25T08:57:52.719Z,15.08
2018-09-25T09:00:29.387Z,14.88
2018-09-25T09:03:07.649Z,14.64
2018-09-25T09:06:01.592Z,14.55
2018-09-25T09:08:40.634Z,14.64
2018-09-25T09:11:30.091Z,14.57
2018-09-25T09:14:07.704Z,14.38
2018-09-25T09:16:46.088Z,14.31
2018-09-25T09:28:48.205Z,14.42
2018-09-25T09:56:07.826Z,15.29
2018-09-25T10:04:50.744Z,15.59
2018-09-25T10:13:40.444Z,15.39
2018-09-25T10:16:18.883Z,15.29
2018-09-25T10:18:57.832Z,15.23
2018-09-25T10:21:34.583Z,15.30
2018-09-25T10:24:12.108Z,15.34
2018-09-25T10:26:48.816Z,15.44
2018-09-25T10:29:27.247Z,15.79
2018-09-25T10:32:03.657Z,16.26
2018-09-25T10:34:40.363Z,16.44
2018-09-25T10:40:33.031Z,16.05
2018-09-25T10:43:08.731Z,16.09
2018-09-25T10:46:08.393Z,16.06
2018-09-25T10:48:45.678Z,15.99
2018-09-25T10:51:22.164Z,16.44
2018-09-25T10:53:58.515Z,17.02
2018-09-25T10:59:21.623Z,17.35
2018-09-25T11:02:00.117Z,17.23
2018-09-25T11:04:45.110Z,16.62
2018-09-25T11:07:40.817Z,16.23
2018-09-25T11:10:52.272Z,16.04
2018-09-25T11:13:32.526Z,15.88
2018-09-25T11:16:11.970Z,15.93
2018-09-25T11:18:46.901Z,16.03
2018-09-25T11:21:23.681Z,16.29
2018-09-25T11:23:58.736Z,16.65
2018-09-25T11:26:34.521Z,16.82
2018-09-25T11:29:13.874Z,17.05
2018-09-25T11:31:49.860Z,17.36
2018-09-25T11:34:25.709Z,17.70
2018-09-25T11:37:01.635Z,17.91
2018-09-25T11:39:38.473Z,17.88
2018-09-25T11:42:38.725Z,17.74
2018-09-25T12:12:46.680Z,17.56
2018-09-25T12:15:24.142Z,17.39
2018-09-25T12:17:59.174Z,17.36
2018-09-25T12:20:34.039Z,17.29
2018-09-25T12:23:12.802Z,17.21
2018-09-25T12:25:48.429Z,16.95
2018-09-25T12:28:25.002Z,16.67
2018-09-25T12:31:01.002Z,16.35
2018-09-25T12:33:36.160Z,16.17
2018-09-25T12:38:56.203Z,16.47
2018-09-25T12:41:39.767Z,16.94
2018-09-25T12:44:19.110Z,17.39
2018-09-25T12:46:57.795Z,17.77
2018-09-25T12:49:38.493Z,18.12
2018-09-25T13:06:12.049Z,17.94
2018-09-25T13:08:49.455Z,17.70
2018-09-25T13:11:25.039Z,17.49
2018-09-25T13:14:00.938Z,17.31
2018-09-25T13:16:35.993Z,17.15
2018-09-25T13:19:12.034Z,17.00
2018-09-25T13:21:47.295Z,16.86
2018-09-25T13:24:26.835Z,16.60
2018-09-25T13:27:05.996Z,16.42
2018-09-25T13:29:47.940Z,16.55
2018-09-25T13:32:25.492Z,16.81
2018-09-25T13:35:02.562Z,17.09
2018-09-25T13:37:39.128Z,17.33
2018-09-25T13:40:19.056Z,17.39
2018-09-25T13:43:04.117Z,17.56
2018-09-25T13:45:39.784Z,17.76
2018-09-25T13:48:15.865Z,17.99
2018-09-25T13:50:53.657Z,18.15
2018-09-25T13:53:30.445Z,18.24
2018-09-25T13:56:06.252Z,18.22
2018-09-25T13:58:47.223Z,18.30
2018-09-25T14:01:23.073Z,18.18
2018-09-25T14:04:20.523Z,18.15
2018-09-25T14:06:58.064Z,18.06
2018-09-25T14:09:36.632Z,17.98
2018-09-25T14:12:16.026Z,17.96
2018-09-25T14:14:53.712Z,18.25
2018-09-25T14:17:28.870Z,18.47
2018-09-25T14:20:06.211Z,18.57
2018-09-25T14:22:46.663Z,18.53
2018-09-25T14:25:21.743Z,18.44
2018-09-25T14:27:57.148Z,18.31
2018-09-25T14:30:35.169Z,18.26
2018-09-25T14:39:17.402Z,17.96
2018-09-25T14:42:07.522Z,18.14
2018-09-25T14:44:45.690Z,18.08
2018-09-25T14:47:21.784Z,17.98
2018-09-25T14:50:00.961Z,17.85
2018-09-25T14:52:43.442Z,17.97
2018-09-25T14:55:56.508Z,18.05
2018-09-25T14:58:36.840Z,18.10
2018-09-25T15:04:01.660Z,18.21
2018-09-25T15:06:37.690Z,18.18
2018-09-25T15:09:16.681Z,18.08
2018-09-25T15:11:56.465Z,18.11
2018-09-25T15:14:39.607Z,18.12
2018-09-25T15:17:17.393Z,17.99
2018-09-25T15:19:52.482Z,17.96
2018-09-25T15:22:32.842Z,17.90
2018-09-25T15:25:13.993Z,17.74
2018-09-25T15:27:53.259Z,17.60
2018-09-25T15:35:02.905Z,17.39
2018-09-25T15:37:47.253Z,17.39
2018-09-25T15:40:31.821Z,17.42
2018-09-25T15:43:10.145Z,17.55
2018-09-25T15:45:46.101Z,17.57
2018-09-25T15:48:24.143Z,17.54
2018-09-25T16:02:13.484Z,16.82
2018-09-25T16:04:53.386Z,16.77
2018-09-25T16:07:30.417Z,16.71
2018-09-25T16:10:08.694Z,16.63
2018-09-25T16:12:50.582Z,16.55
2018-09-25T16:15:26.490Z,16.47
2018-09-25T16:18:03.626Z,16.35
2018-09-25T16:20:40.346Z,16.28
2018-09-25T16:23:17.365Z,16.21
2018-09-25T16:25:54.513Z,16.17
2018-09-25T16:28:34.730Z,16.13
2018-09-25T16:49:08.374Z,15.48
2018-09-25T16:51:49.789Z,15.47
2018-09-25T16:54:31.559Z,15.47
2018-09-25T16:57:15.712Z,15.43
2018-09-25T16:59:52.065Z,15.44
2018-09-25T17:02:33.428Z,15.43
2018-09-25T17:05:13.454Z,15.41
2018-09-25T17:07:52.747Z,15.38
2018-09-25T17:13:42.986Z,15.29
2018-09-25T17:16:25.763Z,15.22
2018-09-25T17:19:03.164Z,15.18
2018-09-25T17:21:42.604Z,15.15
2018-09-25T17:24:24.547Z,15.10
2018-09-25T17:29:56.083Z,14.99
2018-09-25T17:32:34.608Z,14.98
2018-09-25T17:35:13.953Z,14.94
2018-09-25T17:37:51.691Z,14.89
2018-09-25T17:40:29.123Z,14.84
2018-09-25T17:43:08.506Z,14.79
2018-09-25T18:56:12.754Z,13.92
2018-09-25T18:58:54.489Z,13.95
2018-09-25T23:37:29.518Z,11.04
